sensor_id;sensor_type;location;lat;lon;timestamp;P1;durP1;ratioP1;P2;durP2;ratioP2
40635;SDS011;26642;55.766;37.828;2024-03-17T00:01:47;14.95;;;7.43;;
40635;SDS011;26642;55.766;37.828;2024-03-17T00:04:13;16.95;;;7.90;;
40635;SDS011;26642;55.766;37.828;2024-03-17T00:06:39;15.05;;;7.70;;
40635;SDS011;26642;55.766;37.828;2024-03-17T00:09:05;17.30;;;7.28;;
40635;SDS011;26642;55.766;37.828;2024-03-17T00:11:35;11.85;;;6.95;;
40635;SDS011;26642;55.766;37.828;2024-03-17T00:14:01;13.65;;;7.18;;
40635;SDS011;26642;55.766;37.828;2024-03-17T00:16:27;12.88;;;7.22;;
40635;SDS011;26642;55.766;37.828;2024-03-17T00:18:54;16.50;;;7.28;;
40635;SDS011;26642;55.766;37.828;2024-03-17T00:21:21;18.60;;;7.40;;
40635;SDS011;26642;55.766;37.828;2024-03-17T00:23:47;14.77;;;7.80;;
40635;SDS011;26642;55.766;37.828;2024-03-17T00:26:17;14.38;;;7.13;;
40635;SDS011;26642;55.766;37.828;2024-03-17T00:28:44;11.45;;;6.60;;
40635;SDS011;26642;55.766;37.828;2024-03-17T00:31:13;17.02;;;7.82;;
40635;SDS011;26642;55.766;37.828;2024-03-17T00:33:42;12.00;;;7.30;;
40635;SDS011;26642;55.766;37.828;2024-03-17T00:36:09;15.80;;;7.93;;
40635;SDS011;26642;55.766;37.828;2024-03-17T00:38:35;19.77;;;7.80;;
40635;SDS011;26642;55.766;37.828;2024-03-17T00:41:04;12.60;;;6.97;;
40635;SDS011;26642;55.766;37.828;2024-03-17T00:43:31;11.82;;;7.70;;
40635;SDS011;26642;55.766;37.828;2024-03-17T00:45:57;15.48;;;7.40;;
40635;SDS011;26642;55.766;37.828;2024-03-17T00:48:24;17.80;;;7.57;;
40635;SDS011;26642;55.766;37.828;2024-03-17T00:50:56;13.45;;;7.72;;
40635;SDS011;26642;55.766;37.828;2024-03-17T00:53:23;16.13;;;7.63;;
40635;SDS011;26642;55.766;37.828;2024-03-17T00:55:53;16.70;;;7.28;;
40635;SDS011;26642;55.766;37.828;2024-03-17T00:58:23;12.30;;;7.88;;
40635;SDS011;26642;55.766;37.828;2024-03-17T01:00:49;15.32;;;8.10;;
40635;SDS011;26642;55.766;37.828;2024-03-17T01:03:18;14.65;;;8.50;;
40635;SDS011;26642;55.766;37.828;2024-03-17T01:05:44;17.17;;;8.45;;
40635;SDS011;26642;55.766;37.828;2024-03-17T01:08:16;23.98;;;9.25;;
40635;SDS011;26642;55.766;37.828;2024-03-17T01:10:42;12.23;;;7.22;;
40635;SDS011;26642;55.766;37.828;2024-03-17T01:13:09;12.93;;;8.60;;
40635;SDS011;26642;55.766;37.828;2024-03-17T01:15:35;15.75;;;8.00;;
40635;SDS011;26642;55.766;37.828;2024-03-17T01:18:05;18.80;;;8.15;;
40635;SDS011;26642;55.766;37.828;2024-03-17T01:20:32;14.05;;;8.07;;
40635;SDS011;26642;55.766;37.828;2024-03-17T01:23:05;15.35;;;7.80;;
40635;SDS011;26642;55.766;37.828;2024-03-17T01:25:34;14.88;;;8.77;;
40635;SDS011;26642;55.766;37.828;2024-03-17T01:28:03;15.65;;;8.63;;
40635;SDS011;26642;55.766;37.828;2024-03-17T01:30:30;16.67;;;9.70;;
40635;SDS011;26642;55.766;37.828;2024-03-17T01:32:58;17.42;;;7.93;;
40635;SDS011;26642;55.766;37.828;2024-03-17T01:35:27;17.10;;;8.00;;
40635;SDS011;26642;55.766;37.828;2024-03-17T01:37:53;17.35;;;8.63;;
40635;SDS011;26642;55.766;37.828;2024-03-17T01:40:19;13.90;;;8.30;;
40635;SDS011;26642;55.766;37.828;2024-03-17T01:42:46;17.63;;;8.13;;
40635;SDS011;26642;55.766;37.828;2024-03-17T01:47:52;18.33;;;8.55;;
40635;SDS011;26642;55.766;37.828;2024-03-17T01:50:20;16.45;;;8.77;;
40635;SDS011;26642;55.766;37.828;2024-03-17T01:52:53;13.48;;;7.88;;
40635;SDS011;26642;55.766;37.828;2024-03-17T01:55:22;14.25;;;7.97;;
40635;SDS011;26642;55.766;37.828;2024-03-17T01:57:49;15.90;;;8.77;;
40635;SDS011;26642;55.766;37.828;2024-03-17T02:00:16;17.10;;;8.50;;
40635;SDS011;26642;55.766;37.828;2024-03-17T02:02:43;17.35;;;8.40;;
40635;SDS011;26642;55.766;37.828;2024-03-17T02:05:09;18.00;;;8.38;;
40635;SDS011;26642;55.766;37.828;2024-03-17T02:07:35;17.73;;;8.48;;
40635;SDS011;26642;55.766;37.828;2024-03-17T02:10:01;17.80;;;8.77;;
40635;SDS011;26642;55.766;37.828;2024-03-17T02:12:31;18.95;;;9.02;;
40635;SDS011;26642;55.766;37.828;2024-03-17T02:15:00;17.70;;;8.48;;
40635;SDS011;26642;55.766;37.828;2024-03-17T02:17:31;15.30;;;8.52;;
40635;SDS011;26642;55.766;37.828;2024-03-17T02:19:57;18.20;;;9.43;;
40635;SDS011;26642;55.766;37.828;2024-03-17T02:22:23;16.48;;;8.82;;
40635;SDS011;26642;55.766;37.828;2024-03-17T02:24:49;15.40;;;8.90;;
40635;SDS011;26642;55.766;37.828;2024-03-17T02:27:15;14.85;;;8.63;;
40635;SDS011;26642;55.766;37.828;2024-03-17T02:29:41;17.65;;;9.48;;
40635;SDS011;26642;55.766;37.828;2024-03-17T02:32:07;16.48;;;8.60;;
40635;SDS011;26642;55.766;37.828;2024-03-17T02:34:34;19.90;;;9.60;;
40635;SDS011;26642;55.766;37.828;2024-03-17T02:37:03;12.98;;;8.52;;
40635;SDS011;26642;55.766;37.828;2024-03-17T02:39:31;23.48;;;9.13;;
40635;SDS011;26642;55.766;37.828;2024-03-17T02:42:01;16.90;;;8.98;;
40635;SDS011;26642;55.766;37.828;2024-03-17T02:44:31;17.55;;;8.98;;
40635;SDS011;26642;55.766;37.828;2024-03-17T02:46:58;15.20;;;8.82;;
40635;SDS011;26642;55.766;37.828;2024-03-17T02:49:25;16.95;;;9.77;;
40635;SDS011;26642;55.766;37.828;2024-03-17T02:51:53;18.45;;;9.63;;
40635;SDS011;26642;55.766;37.828;2024-03-17T02:54:20;19.85;;;8.90;;
40635;SDS011;26642;55.766;37.828;2024-03-17T02:56:49;16.08;;;9.38;;
40635;SDS011;26642;55.766;37.828;2024-03-17T02:59:15;16.38;;;9.02;;
40635;SDS011;26642;55.766;37.828;2024-03-17T03:01:41;17.45;;;9.65;;
40635;SDS011;26642;55.766;37.828;2024-03-17T03:04:07;20.42;;;9.05;;
40635;SDS011;26642;55.766;37.828;2024-03-17T03:06:33;19.88;;;9.95;;
40635;SDS011;26642;55.766;37.828;2024-03-17T03:08:59;17.83;;;9.18;;
40635;SDS011;26642;55.766;37.828;2024-03-17T03:11:25;24.35;;;10.02;;
40635;SDS011;26642;55.766;37.828;2024-03-17T03:13:51;18.13;;;9.18;;
40635;SDS011;26642;55.766;37.828;2024-03-17T03:16:17;20.70;;;10.05;;
40635;SDS011;26642;55.766;37.828;2024-03-17T03:18:44;19.38;;;9.18;;
40635;SDS011;26642;55.766;37.828;2024-03-17T03:21:13;20.02;;;9.13;;
40635;SDS011;26642;55.766;37.828;2024-03-17T03:23:39;20.38;;;9.45;;
40635;SDS011;26642;55.766;37.828;2024-03-17T03:26:05;14.82;;;9.02;;
40635;SDS011;26642;55.766;37.828;2024-03-17T03:28:34;16.20;;;9.77;;
40635;SDS011;26642;55.766;37.828;2024-03-17T03:31:01;15.18;;;9.18;;
40635;SDS011;26642;55.766;37.828;2024-03-17T03:33:27;19.00;;;8.90;;
40635;SDS011;26642;55.766;37.828;2024-03-17T03:35:53;16.67;;;9.27;;
40635;SDS011;26642;55.766;37.828;2024-03-17T03:38:20;18.60;;;9.65;;
40635;SDS011;26642;55.766;37.828;2024-03-17T03:40:47;18.65;;;9.48;;
40635;SDS011;26642;55.766;37.828;2024-03-17T03:43:14;18.05;;;9.30;;
40635;SDS011;26642;55.766;37.828;2024-03-17T03:45:40;19.33;;;9.35;;
40635;SDS011;26642;55.766;37.828;2024-03-17T03:48:07;19.23;;;9.32;;
40635;SDS011;26642;55.766;37.828;2024-03-17T03:50:39;15.80;;;9.00;;
40635;SDS011;26642;55.766;37.828;2024-03-17T03:53:06;18.20;;;8.93;;
40635;SDS011;26642;55.766;37.828;2024-03-17T03:55:32;16.83;;;9.32;;
40635;SDS011;26642;55.766;37.828;2024-03-17T03:57:58;21.00;;;9.27;;
40635;SDS011;26642;55.766;37.828;2024-03-17T04:00:24;23.63;;;10.43;;
40635;SDS011;26642;55.766;37.828;2024-03-17T04:02:54;20.98;;;9.40;;
40635;SDS011;26642;55.766;37.828;2024-03-17T04:05:20;20.92;;;9.55;;
40635;SDS011;26642;55.766;37.828;2024-03-17T04:07:48;19.25;;;9.20;;
40635;SDS011;26642;55.766;37.828;2024-03-17T04:10:15;19.08;;;9.30;;
40635;SDS011;26642;55.766;37.828;2024-03-17T04:12:44;20.15;;;9.70;;
40635;SDS011;26642;55.766;37.828;2024-03-17T04:15:10;18.02;;;9.00;;
40635;SDS011;26642;55.766;37.828;2024-03-17T04:17:36;16.60;;;9.50;;
40635;SDS011;26642;55.766;37.828;2024-03-17T04:20:03;15.95;;;9.27;;
40635;SDS011;26642;55.766;37.828;2024-03-17T04:22:33;16.65;;;10.07;;
40635;SDS011;26642;55.766;37.828;2024-03-17T04:24:59;19.17;;;9.70;;
40635;SDS011;26642;55.766;37.828;2024-03-17T04:27:26;19.70;;;9.52;;
40635;SDS011;26642;55.766;37.828;2024-03-17T04:29:53;16.27;;;9.23;;
40635;SDS011;26642;55.766;37.828;2024-03-17T04:32:20;17.50;;;9.13;;
40635;SDS011;26642;55.766;37.828;2024-03-17T04:34:47;23.95;;;11.00;;
40635;SDS011;26642;55.766;37.828;2024-03-17T04:37:13;21.13;;;9.27;;
40635;SDS011;26642;55.766;37.828;2024-03-17T04:39:40;22.40;;;10.52;;
40635;SDS011;26642;55.766;37.828;2024-03-17T04:42:10;19.30;;;10.27;;
40635;SDS011;26642;55.766;37.828;2024-03-17T04:44:37;19.48;;;9.75;;
40635;SDS011;26642;55.766;37.828;2024-03-17T04:47:05;21.13;;;10.30;;
40635;SDS011;26642;55.766;37.828;2024-03-17T04:49:42;19.52;;;11.13;;
40635;SDS011;26642;55.766;37.828;2024-03-17T04:52:09;17.40;;;10.35;;
40635;SDS011;26642;55.766;37.828;2024-03-17T04:54:36;16.58;;;10.35;;
40635;SDS011;26642;55.766;37.828;2024-03-17T04:57:02;23.58;;;10.90;;
40635;SDS011;26642;55.766;37.828;2024-03-17T04:59:29;20.92;;;11.10;;
40635;SDS011;26642;55.766;37.828;2024-03-17T05:01:59;20.00;;;10.32;;
40635;SDS011;26642;55.766;37.828;2024-03-17T05:04:25;25.42;;;10.73;;
40635;SDS011;26642;55.766;37.828;2024-03-17T05:06:51;26.75;;;11.48;;
40635;SDS011;26642;55.766;37.828;2024-03-17T05:09:17;19.42;;;10.90;;
40635;SDS011;26642;55.766;37.828;2024-03-17T05:11:43;19.20;;;11.38;;
40635;SDS011;26642;55.766;37.828;2024-03-17T05:14:09;19.55;;;10.88;;
40635;SDS011;26642;55.766;37.828;2024-03-17T05:16:36;20.77;;;11.00;;
40635;SDS011;26642;55.766;37.828;2024-03-17T05:19:02;18.83;;;11.13;;
40635;SDS011;26642;55.766;37.828;2024-03-17T05:21:29;18.10;;;10.93;;
40635;SDS011;26642;55.766;37.828;2024-03-17T05:23:56;17.67;;;10.35;;
40635;SDS011;26642;55.766;37.828;2024-03-17T05:26:25;19.73;;;11.55;;
40635;SDS011;26642;55.766;37.828;2024-03-17T05:28:51;22.10;;;11.18;;
40635;SDS011;26642;55.766;37.828;2024-03-17T05:31:17;16.85;;;10.98;;
40635;SDS011;26642;55.766;37.828;2024-03-17T05:33:44;23.85;;;11.40;;
40635;SDS011;26642;55.766;37.828;2024-03-17T05:36:10;24.13;;;12.02;;
40635;SDS011;26642;55.766;37.828;2024-03-17T05:38:36;20.23;;;11.65;;
40635;SDS011;26642;55.766;37.828;2024-03-17T05:41:03;25.85;;;11.85;;
40635;SDS011;26642;55.766;37.828;2024-03-17T05:43:33;20.48;;;10.73;;
40635;SDS011;26642;55.766;37.828;2024-03-17T05:46:06;21.13;;;10.48;;
40635;SDS011;26642;55.766;37.828;2024-03-17T05:48:34;20.55;;;11.93;;
40635;SDS011;26642;55.766;37.828;2024-03-17T05:51:04;22.25;;;11.80;;
40635;SDS011;26642;55.766;37.828;2024-03-17T05:53:31;21.63;;;10.50;;
40635;SDS011;26642;55.766;37.828;2024-03-17T05:56:01;17.80;;;9.75;;
40635;SDS011;26642;55.766;37.828;2024-03-17T05:58:28;18.90;;;10.63;;
40635;SDS011;26642;55.766;37.828;2024-03-17T06:00:54;20.48;;;11.10;;
40635;SDS011;26642;55.766;37.828;2024-03-17T06:03:20;19.10;;;10.43;;
40635;SDS011;26642;55.766;37.828;2024-03-17T06:05:47;19.95;;;10.10;;
40635;SDS011;26642;55.766;37.828;2024-03-17T06:08:13;21.40;;;10.77;;
40635;SDS011;26642;55.766;37.828;2024-03-17T06:10:44;19.85;;;10.68;;
40635;SDS011;26642;55.766;37.828;2024-03-17T06:13:14;19.63;;;9.75;;
40635;SDS011;26642;55.766;37.828;2024-03-17T06:15:42;14.95;;;10.43;;
40635;SDS011;26642;55.766;37.828;2024-03-17T06:18:12;20.25;;;11.20;;
40635;SDS011;26642;55.766;37.828;2024-03-17T06:20:43;20.02;;;11.13;;
40635;SDS011;26642;55.766;37.828;2024-03-17T06:23:10;17.77;;;9.77;;
40635;SDS011;26642;55.766;37.828;2024-03-17T06:28:08;23.80;;;10.50;;
40635;SDS011;26642;55.766;37.828;2024-03-17T06:30:35;17.10;;;10.52;;
40635;SDS011;26642;55.766;37.828;2024-03-17T06:33:02;16.50;;;9.48;;
40635;SDS011;26642;55.766;37.828;2024-03-17T06:35:29;17.90;;;9.60;;
40635;SDS011;26642;55.766;37.828;2024-03-17T06:37:58;17.95;;;9.23;;
40635;SDS011;26642;55.766;37.828;2024-03-17T06:40:26;15.02;;;8.75;;
40635;SDS011;26642;55.766;37.828;2024-03-17T06:42:52;19.27;;;9.60;;
40635;SDS011;26642;55.766;37.828;2024-03-17T06:45:19;13.55;;;8.25;;
40635;SDS011;26642;55.766;37.828;2024-03-17T06:47:46;14.07;;;8.63;;
40635;SDS011;26642;55.766;37.828;2024-03-17T06:50:12;20.77;;;8.70;;
40635;SDS011;26642;55.766;37.828;2024-03-17T06:52:39;14.55;;;8.68;;
40635;SDS011;26642;55.766;37.828;2024-03-17T06:57:50;16.50;;;7.65;;
40635;SDS011;26642;55.766;37.828;2024-03-17T07:00:16;22.08;;;8.50;;
40635;SDS011;26642;55.766;37.828;2024-03-17T07:02:43;17.00;;;7.97;;
40635;SDS011;26642;55.766;37.828;2024-03-17T07:05:13;17.73;;;8.35;;
40635;SDS011;26642;55.766;37.828;2024-03-17T07:07:42;19.40;;;9.05;;
40635;SDS011;26642;55.766;37.828;2024-03-17T07:10:09;18.27;;;8.63;;
40635;SDS011;26642;55.766;37.828;2024-03-17T07:12:42;20.63;;;9.80;;
40635;SDS011;26642;55.766;37.828;2024-03-17T07:15:08;17.23;;;8.43;;
40635;SDS011;26642;55.766;37.828;2024-03-17T07:17:36;18.27;;;8.43;;
40635;SDS011;26642;55.766;37.828;2024-03-17T07:20:02;17.55;;;8.30;;
40635;SDS011;26642;55.766;37.828;2024-03-17T07:22:33;17.15;;;7.53;;
40635;SDS011;26642;55.766;37.828;2024-03-17T07:24:59;16.35;;;8.05;;
40635;SDS011;26642;55.766;37.828;2024-03-17T07:27:29;21.55;;;9.07;;
40635;SDS011;26642;55.766;37.828;2024-03-17T07:29:55;20.58;;;9.63;;
40635;SDS011;26642;55.766;37.828;2024-03-17T07:32:21;26.65;;;11.32;;
40635;SDS011;26642;55.766;37.828;2024-03-17T07:34:48;30.05;;;10.98;;
40635;SDS011;26642;55.766;37.828;2024-03-17T07:37:15;26.90;;;11.57;;
40635;SDS011;26642;55.766;37.828;2024-03-17T07:39:41;28.05;;;11.45;;
40635;SDS011;26642;55.766;37.828;2024-03-17T07:42:07;23.25;;;11.70;;
40635;SDS011;26642;55.766;37.828;2024-03-17T07:44:33;25.83;;;11.75;;
40635;SDS011;26642;55.766;37.828;2024-03-17T07:47:00;31.20;;;11.52;;
40635;SDS011;26642;55.766;37.828;2024-03-17T07:49:26;26.20;;;10.63;;
40635;SDS011;26642;55.766;37.828;2024-03-17T07:51:53;21.50;;;10.55;;
40635;SDS011;26642;55.766;37.828;2024-03-17T07:54:19;34.38;;;12.82;;
40635;SDS011;26642;55.766;37.828;2024-03-17T07:56:46;32.97;;;13.43;;
40635;SDS011;26642;55.766;37.828;2024-03-17T07:59:12;35.78;;;13.88;;
40635;SDS011;26642;55.766;37.828;2024-03-17T08:01:42;28.95;;;12.88;;
40635;SDS011;26642;55.766;37.828;2024-03-17T08:04:08;40.88;;;14.85;;
40635;SDS011;26642;55.766;37.828;2024-03-17T08:06:34;44.40;;;13.85;;
40635;SDS011;26642;55.766;37.828;2024-03-17T08:09:00;36.50;;;14.98;;
40635;SDS011;26642;55.766;37.828;2024-03-17T08:11:26;41.95;;;15.07;;
40635;SDS011;26642;55.766;37.828;2024-03-17T08:13:52;45.05;;;14.35;;
40635;SDS011;26642;55.766;37.828;2024-03-17T08:16:19;40.42;;;15.15;;
40635;SDS011;26642;55.766;37.828;2024-03-17T08:18:46;38.25;;;14.73;;
40635;SDS011;26642;55.766;37.828;2024-03-17T08:21:12;33.13;;;14.27;;
40635;SDS011;26642;55.766;37.828;2024-03-17T08:23:38;41.90;;;15.35;;
40635;SDS011;26642;55.766;37.828;2024-03-17T08:26:08;35.00;;;14.25;;
40635;SDS011;26642;55.766;37.828;2024-03-17T08:28:34;37.38;;;14.85;;
40635;SDS011;26642;55.766;37.828;2024-03-17T08:31:01;36.17;;;14.80;;
40635;SDS011;26642;55.766;37.828;2024-03-17T08:33:28;40.72;;;14.45;;
40635;SDS011;26642;55.766;37.828;2024-03-17T08:38:23;36.15;;;14.63;;
40635;SDS011;26642;55.766;37.828;2024-03-17T08:40:52;32.20;;;15.25;;
40635;SDS011;26642;55.766;37.828;2024-03-17T08:43:20;33.80;;;15.18;;
40635;SDS011;26642;55.766;37.828;2024-03-17T08:45:54;29.40;;;13.27;;
40635;SDS011;26642;55.766;37.828;2024-03-17T08:48:23;30.90;;;14.02;;
40635;SDS011;26642;55.766;37.828;2024-03-17T08:50:50;31.45;;;13.30;;
40635;SDS011;26642;55.766;37.828;2024-03-17T08:53:17;33.83;;;13.93;;
40635;SDS011;26642;55.766;37.828;2024-03-17T08:55:44;38.42;;;13.65;;
40635;SDS011;26642;55.766;37.828;2024-03-17T08:58:10;34.33;;;14.15;;
40635;SDS011;26642;55.766;37.828;2024-03-17T09:00:36;40.78;;;13.75;;
40635;SDS011;26642;55.766;37.828;2024-03-17T09:03:02;42.65;;;13.55;;
40635;SDS011;26642;55.766;37.828;2024-03-17T09:05:29;32.75;;;13.15;;
40635;SDS011;26642;55.766;37.828;2024-03-17T09:07:58;36.78;;;13.07;;
40635;SDS011;26642;55.766;37.828;2024-03-17T09:10:24;32.05;;;12.52;;
40635;SDS011;26642;55.766;37.828;2024-03-17T09:12:50;30.15;;;13.07;;
40635;SDS011;26642;55.766;37.828;2024-03-17T09:15:16;37.03;;;12.10;;
40635;SDS011;26642;55.766;37.828;2024-03-17T09:17:42;34.22;;;12.68;;
40635;SDS011;26642;55.766;37.828;2024-03-17T09:20:11;36.10;;;13.00;;
40635;SDS011;26642;55.766;37.828;2024-03-17T09:22:38;32.97;;;11.95;;
40635;SDS011;26642;55.766;37.828;2024-03-17T09:25:07;36.05;;;12.40;;
40635;SDS011;26642;55.766;37.828;2024-03-17T09:27:34;34.72;;;12.02;;
40635;SDS011;26642;55.766;37.828;2024-03-17T09:30:04;33.20;;;12.18;;
40635;SDS011;26642;55.766;37.828;2024-03-17T09:32:37;28.88;;;12.60;;
40635;SDS011;26642;55.766;37.828;2024-03-17T09:35:04;30.55;;;11.65;;
40635;SDS011;26642;55.766;37.828;2024-03-17T09:37:31;33.47;;;12.57;;
40635;SDS011;26642;55.766;37.828;2024-03-17T09:39:58;30.05;;;11.55;;
40635;SDS011;26642;55.766;37.828;2024-03-17T09:42:27;29.33;;;12.07;;
40635;SDS011;26642;55.766;37.828;2024-03-17T09:44:53;31.35;;;11.77;;
40635;SDS011;26642;55.766;37.828;2024-03-17T09:47:22;32.28;;;12.25;;
40635;SDS011;26642;55.766;37.828;2024-03-17T09:49:50;30.23;;;11.38;;
40635;SDS011;26642;55.766;37.828;2024-03-17T09:55:01;27.17;;;10.65;;
40635;SDS011;26642;55.766;37.828;2024-03-17T09:57:37;30.90;;;11.15;;
40635;SDS011;26642;55.766;37.828;2024-03-17T10:00:04;30.30;;;10.63;;
40635;SDS011;26642;55.766;37.828;2024-03-17T10:02:44;30.95;;;10.88;;
40635;SDS011;26642;55.766;37.828;2024-03-17T10:05:18;33.67;;;10.85;;
40635;SDS011;26642;55.766;37.828;2024-03-17T10:07:49;30.20;;;11.43;;
40635;SDS011;26642;55.766;37.828;2024-03-17T10:10:20;32.75;;;11.07;;
40635;SDS011;26642;55.766;37.828;2024-03-17T10:12:49;30.40;;;10.75;;
40635;SDS011;26642;55.766;37.828;2024-03-17T10:15:16;33.58;;;11.38;;
40635;SDS011;26642;55.766;37.828;2024-03-17T10:17:43;32.75;;;11.25;;
40635;SDS011;26642;55.766;37.828;2024-03-17T10:20:13;37.38;;;11.25;;
40635;SDS011;26642;55.766;37.828;2024-03-17T10:23:02;31.98;;;10.65;;
40635;SDS011;26642;55.766;37.828;2024-03-17T10:25:30;32.58;;;11.32;;
40635;SDS011;26642;55.766;37.828;2024-03-17T10:27:57;34.25;;;11.02;;
40635;SDS011;26642;55.766;37.828;2024-03-17T10:30:24;25.42;;;10.60;;
40635;SDS011;26642;55.766;37.828;2024-03-17T10:32:59;28.90;;;10.48;;
40635;SDS011;26642;55.766;37.828;2024-03-17T10:35:29;29.50;;;11.45;;
40635;SDS011;26642;55.766;37.828;2024-03-17T10:37:57;32.63;;;10.80;;
40635;SDS011;26642;55.766;37.828;2024-03-17T10:40:25;26.33;;;9.65;;
40635;SDS011;26642;55.766;37.828;2024-03-17T10:42:52;25.80;;;10.48;;
40635;SDS011;26642;55.766;37.828;2024-03-17T10:45:18;29.48;;;9.68;;
40635;SDS011;26642;55.766;37.828;2024-03-17T10:47:50;26.10;;;9.27;;
40635;SDS011;26642;55.766;37.828;2024-03-17T10:50:21;22.88;;;9.07;;
40635;SDS011;26642;55.766;37.828;2024-03-17T10:52:49;25.73;;;9.25;;
40635;SDS011;26642;55.766;37.828;2024-03-17T10:55:25;23.50;;;8.75;;
40635;SDS011;26642;55.766;37.828;2024-03-17T10:57:52;23.35;;;8.55;;
40635;SDS011;26642;55.766;37.828;2024-03-17T11:00:24;25.23;;;8.65;;
40635;SDS011;26642;55.766;37.828;2024-03-17T11:02:54;21.38;;;7.07;;
40635;SDS011;26642;55.766;37.828;2024-03-17T11:07:48;20.35;;;7.50;;
40635;SDS011;26642;55.766;37.828;2024-03-17T11:10:29;18.98;;;6.82;;
40635;SDS011;26642;55.766;37.828;2024-03-17T11:12:57;17.92;;;6.63;;
40635;SDS011;26642;55.766;37.828;2024-03-17T11:17:51;17.75;;;6.88;;
40635;SDS011;26642;55.766;37.828;2024-03-17T11:20:26;23.55;;;8.23;;
40635;SDS011;26642;55.766;37.828;2024-03-17T11:22:59;18.17;;;6.82;;
40635;SDS011;26642;55.766;37.828;2024-03-17T11:27:56;20.88;;;6.90;;
40635;SDS011;26642;55.766;37.828;2024-03-17T11:39:06;23.85;;;7.68;;
40635;SDS011;26642;55.766;37.828;2024-03-17T11:44:14;28.43;;;8.10;;
40635;SDS011;26642;55.766;37.828;2024-03-17T11:46:54;26.27;;;8.15;;
40635;SDS011;26642;55.766;37.828;2024-03-17T11:49:28;28.80;;;8.38;;
40635;SDS011;26642;55.766;37.828;2024-03-17T11:52:05;25.55;;;7.97;;
40635;SDS011;26642;55.766;37.828;2024-03-17T11:54:42;22.27;;;7.70;;
40635;SDS011;26642;55.766;37.828;2024-03-17T11:57:10;23.55;;;8.48;;
40635;SDS011;26642;55.766;37.828;2024-03-17T11:59:41;24.83;;;8.70;;
40635;SDS011;26642;55.766;37.828;2024-03-17T12:02:17;23.42;;;7.10;;
40635;SDS011;26642;55.766;37.828;2024-03-17T12:04:58;24.58;;;7.78;;
40635;SDS011;26642;55.766;37.828;2024-03-17T12:07:26;23.13;;;7.78;;
40635;SDS011;26642;55.766;37.828;2024-03-17T12:09:53;16.42;;;7.00;;
40635;SDS011;26642;55.766;37.828;2024-03-17T12:12:21;28.75;;;7.90;;
40635;SDS011;26642;55.766;37.828;2024-03-17T12:14:49;26.48;;;7.78;;
40635;SDS011;26642;55.766;37.828;2024-03-17T12:17:22;32.50;;;7.82;;
40635;SDS011;26642;55.766;37.828;2024-03-17T12:19:49;22.08;;;7.85;;
40635;SDS011;26642;55.766;37.828;2024-03-17T12:22:18;23.23;;;7.97;;
40635;SDS011;26642;55.766;37.828;2024-03-17T12:24:53;26.02;;;7.93;;
40635;SDS011;26642;55.766;37.828;2024-03-17T12:27:25;26.75;;;8.60;;
40635;SDS011;26642;55.766;37.828;2024-03-17T12:29:52;26.23;;;7.70;;
40635;SDS011;26642;55.766;37.828;2024-03-17T12:32:19;25.88;;;8.50;;
40635;SDS011;26642;55.766;37.828;2024-03-17T12:34:48;21.70;;;7.72;;
40635;SDS011;26642;55.766;37.828;2024-03-17T12:37:17;26.70;;;8.38;;
40635;SDS011;26642;55.766;37.828;2024-03-17T12:39:44;22.45;;;8.18;;
40635;SDS011;26642;55.766;37.828;2024-03-17T12:44:49;25.02;;;7.82;;
40635;SDS011;26642;55.766;37.828;2024-03-17T12:47:20;18.85;;;8.45;;
40635;SDS011;26642;55.766;37.828;2024-03-17T12:52:23;23.48;;;8.48;;
40635;SDS011;26642;55.766;37.828;2024-03-17T12:55:00;19.00;;;8.15;;
40635;SDS011;26642;55.766;37.828;2024-03-17T13:00:45;22.42;;;7.78;;
40635;SDS011;26642;55.766;37.828;2024-03-17T13:03:21;18.77;;;7.45;;
40635;SDS011;26642;55.766;37.828;2024-03-17T13:05:50;23.48;;;8.07;;
40635;SDS011;26642;55.766;37.828;2024-03-17T13:08:16;19.77;;;7.43;;
40635;SDS011;26642;55.766;37.828;2024-03-17T13:10:43;22.42;;;8.23;;
40635;SDS011;26642;55.766;37.828;2024-03-17T13:13:10;20.83;;;7.72;;
40635;SDS011;26642;55.766;37.828;2024-03-17T13:15:41;20.75;;;8.35;;
40635;SDS011;26642;55.766;37.828;2024-03-17T13:18:07;23.48;;;8.52;;
40635;SDS011;26642;55.766;37.828;2024-03-17T13:20:34;22.42;;;7.32;;
40635;SDS011;26642;55.766;37.828;2024-03-17T13:23:00;23.00;;;8.32;;
40635;SDS011;26642;55.766;37.828;2024-03-17T13:25:28;22.33;;;8.35;;
40635;SDS011;26642;55.766;37.828;2024-03-17T13:27:59;22.48;;;8.02;;
40635;SDS011;26642;55.766;37.828;2024-03-17T13:30:26;22.50;;;7.75;;
40635;SDS011;26642;55.766;37.828;2024-03-17T13:32:54;19.58;;;8.05;;
40635;SDS011;26642;55.766;37.828;2024-03-17T13:35:24;18.83;;;8.00;;
40635;SDS011;26642;55.766;37.828;2024-03-17T13:37:51;26.67;;;8.23;;
40635;SDS011;26642;55.766;37.828;2024-03-17T13:40:19;20.38;;;7.25;;
40635;SDS011;26642;55.766;37.828;2024-03-17T13:42:50;15.27;;;7.65;;
40635;SDS011;26642;55.766;37.828;2024-03-17T13:45:18;23.75;;;8.10;;
40635;SDS011;26642;55.766;37.828;2024-03-17T13:47:53;19.95;;;7.80;;
40635;SDS011;26642;55.766;37.828;2024-03-17T13:50:26;20.60;;;7.38;;
40635;SDS011;26642;55.766;37.828;2024-03-17T13:52:53;20.27;;;8.07;;
40635;SDS011;26642;55.766;37.828;2024-03-17T13:55:19;22.60;;;8.02;;
40635;SDS011;26642;55.766;37.828;2024-03-17T13:57:49;30.63;;;8.52;;
40635;SDS011;26642;55.766;37.828;2024-03-17T14:03:39;20.67;;;8.23;;
40635;SDS011;26642;55.766;37.828;2024-03-17T14:06:09;21.88;;;7.60;;
40635;SDS011;26642;55.766;37.828;2024-03-17T14:08:35;27.42;;;8.00;;
40635;SDS011;26642;55.766;37.828;2024-03-17T14:11:01;22.77;;;8.32;;
40635;SDS011;26642;55.766;37.828;2024-03-17T14:13:27;20.83;;;8.02;;
40635;SDS011;26642;55.766;37.828;2024-03-17T14:15:56;26.88;;;8.40;;
40635;SDS011;26642;55.766;37.828;2024-03-17T14:18:23;19.85;;;7.40;;
40635;SDS011;26642;55.766;37.828;2024-03-17T14:20:49;30.75;;;8.40;;
40635;SDS011;26642;55.766;37.828;2024-03-17T14:23:15;23.38;;;8.13;;
40635;SDS011;26642;55.766;37.828;2024-03-17T14:25:42;22.92;;;7.88;;
40635;SDS011;26642;55.766;37.828;2024-03-17T14:28:08;27.20;;;9.25;;
40635;SDS011;26642;55.766;37.828;2024-03-17T14:30:34;24.67;;;8.32;;
40635;SDS011;26642;55.766;37.828;2024-03-17T14:33:00;29.02;;;8.65;;
40635;SDS011;26642;55.766;37.828;2024-03-17T14:35:26;19.75;;;9.38;;
40635;SDS011;26642;55.766;37.828;2024-03-17T14:37:52;22.63;;;8.88;;
40635;SDS011;26642;55.766;37.828;2024-03-17T14:40:19;28.27;;;9.02;;
40635;SDS011;26642;55.766;37.828;2024-03-17T14:42:53;25.95;;;8.40;;
40635;SDS011;26642;55.766;37.828;2024-03-17T14:45:23;25.95;;;8.52;;
40635;SDS011;26642;55.766;37.828;2024-03-17T14:47:49;23.67;;;7.85;;
40635;SDS011;26642;55.766;37.828;2024-03-17T14:50:17;19.15;;;8.32;;
40635;SDS011;26642;55.766;37.828;2024-03-17T14:52:43;19.45;;;8.48;;
40635;SDS011;26642;55.766;37.828;2024-03-17T14:55:10;23.55;;;8.85;;
40635;SDS011;26642;55.766;37.828;2024-03-17T14:57:37;21.23;;;7.63;;
40635;SDS011;26642;55.766;37.828;2024-03-17T15:00:06;25.95;;;8.18;;
40635;SDS011;26642;55.766;37.828;2024-03-17T15:02:44;26.85;;;8.75;;
40635;SDS011;26642;55.766;37.828;2024-03-17T15:05:14;23.20;;;8.52;;